Time;durP1;ratioP1;P1;durP2;ratioP2;P2;SDS_P1;SDS_P2;PMS_P1;PMS_P2;Temp;Humidity;BMP_temperature;BMP_pressure;BME280_temperature;BME280_humidity;BME280_pressure;Samples;Min_cycle;Max_cycle;Signal;HPM_P1;HPM_P2
2023/03/27 00:00:28;;;;;;;5.18;2.22;;;;;;;17.73;59.48;95733.91;10364469;28;20288;-29
2023/03/27 00:05:28;;;;;;;3.63;1.90;;;;;;;17.71;59.45;95743.22;10350646;28;20037;-29
2023/03/27 00:10:30;;;;;;;5.27;2.00;;;;;;;17.73;60.03;95760.94;10351571;28;20113;-29
2023/03/27 00:15:32;;;;;;;4.18;2.35;;;;;;;17.79;60.19;95771.81;10385873;28;20034;-29
2023/03/27 00:20:36;;;;;;;5.57;2.25;;;;;;;17.79;60.15;95781.09;10368653;28;20026;-29
2023/03/27 00:25:36;;;;;;;3.83;2.47;;;;;;;17.76;59.85;95788.72;10373435;28;20465;-29
2023/03/27 00:30:36;;;;;;;2.73;1.70;;;;;;;17.74;59.38;95810.69;10388970;28;20497;-29
2023/03/27 00:35:37;;;;;;;3.00;1.70;;;;;;;17.74;59.42;95815.75;10357795;28;20045;-29
2023/03/27 00:40:38;;;;;;;3.42;1.90;;;;;;;17.74;59.17;95828.41;10388247;28;20033;-29
2023/03/27 00:45:39;;;;;;;5.28;3.08;;;;;;;17.73;59.19;95831.81;10367567;28;20033;-29
2023/03/27 00:50:41;;;;;;;2.90;1.87;;;;;;;17.73;59.26;95839.41;10372077;28;20026;-29
2023/03/27 00:55:47;;;;;;;2.13;1.50;;;;;;;17.71;59.39;95838.56;10357817;28;20037;-29
2023/03/27 01:00:51;;;;;;;3.67;1.85;;;;;;;17.71;59.16;95836.88;10372766;28;20033;-29
2023/03/27 01:05:54;;;;;;;4.28;2.08;;;;;;;17.70;59.25;95854.59;10347435;28;20064;-29
2023/03/27 01:11:07;;;;;;;3.75;2.00;;;;;;;17.69;58.58;95853.78;10344587;28;20037;-29
2023/03/27 01:16:21;;;;;;;3.60;1.83;;;;;;;17.72;60.04;95858.81;10372996;28;20442;-30
2023/03/27 01:21:47;;;;;;;3.33;1.85;;;;;;;17.76;60.23;95874.81;10360679;28;20413;-30
2023/03/27 01:27:02;;;;;;;5.38;1.77;;;;;;;17.75;59.99;95890.84;10359312;28;20041;-29
2023/03/27 01:32:29;;;;;;;6.03;1.58;;;;;;;17.72;59.42;95889.19;10348091;28;20034;-29
2023/03/27 01:37:36;;;;;;;4.22;1.42;;;;;;;17.71;59.06;95887.50;10333651;28;20030;-29
2023/03/27 01:42:58;;;;;;;1.77;1.63;;;;;;;17.71;59.54;95909.44;10351359;28;20498;-29
2023/03/27 01:48:31;;;;;;;4.25;1.77;;;;;;;17.69;59.14;95914.53;10334478;28;20034;-30
2023/03/27 01:53:38;;;;;;;2.63;1.58;;;;;;;17.69;59.25;95921.28;10306892;28;20677;-30
2023/03/27 01:58:45;;;;;;;3.80;1.70;;;;;;;17.69;59.18;95923.81;10322765;28;20038;-29
2023/03/27 02:03:56;;;;;;;3.22;1.38;;;;;;;17.66;59.13;95929.72;10354875;28;20054;-30
2023/03/27 02:09:03;;;;;;;3.10;1.70;;;;;;;17.66;58.98;95937.31;10354447;28;20084;-29
2023/03/27 02:14:19;;;;;;;3.72;1.85;;;;;;;17.66;59.23;95933.97;10338315;28;20045;-29
2023/03/27 02:19:34;;;;;;;5.20;1.77;;;;;;;17.66;59.00;95965.16;10324277;28;20034;-29
2023/03/27 02:24:34;;;;;;;1.95;1.33;;;;;;;17.71;59.90;95962.59;10341965;28;20034;-29
2023/03/27 02:29:52;;;;;;;4.33;1.57;;;;;;;17.71;59.90;95967.66;10322106;28;20058;-29
2023/03/27 02:35:26;;;;;;;2.78;1.33;;;;;;;17.72;59.40;95979.47;10327132;28;20036;-29
2023/03/27 02:40:41;;;;;;;2.20;1.45;;;;;;;17.65;59.26;95977.84;10333112;28;20026;-29
2023/03/27 02:46:20;;;;;;;5.03;1.97;;;;;;;17.61;59.29;95987.16;10320323;28;20132;-30
2023/03/27 02:51:46;;;;;;;2.40;1.80;;;;;;;17.63;59.26;96003.16;10358202;28;20572;-29
2023/03/27 02:56:51;;;;;;;5.00;1.73;;;;;;;17.64;59.00;96016.66;10352294;28;20091;-30
2023/03/27 03:02:00;;;;;;;3.33;1.63;;;;;;;17.61;59.33;96024.28;10338023;28;20049;-29
2023/03/27 03:07:05;;;;;;;4.00;1.60;;;;;;;17.59;59.08;96036.13;10345318;28;20072;-29
2023/03/27 03:12:06;;;;;;;2.88;1.70;;;;;;;17.60;59.31;96046.22;10324591;28;20034;-29
2023/03/27 03:17:13;;;;;;;5.50;1.35;;;;;;;17.59;58.88;96063.94;10343328;28;20045;-30
2023/03/27 03:22:14;;;;;;;3.03;1.52;;;;;;;17.58;59.20;96072.41;10350465;28;20410;-29
2023/03/27 03:27:14;;;;;;;3.70;1.92;;;;;;;17.66;59.64;96086.66;10356727;28;20038;-29
2023/03/27 03:32:31;;;;;;;2.47;1.65;;;;;;;17.69;59.60;96095.94;10331213;28;20032;-29
2023/03/27 03:37:37;;;;;;;3.30;1.50;;;;;;;17.70;59.33;96115.34;10356256;28;20501;-29
2023/03/27 03:42:47;;;;;;;4.47;1.83;;;;;;;17.68;58.79;96129.69;10349732;28;20125;-30
2023/03/27 03:47:49;;;;;;;3.25;1.67;;;;;;;17.67;57.78;96138.16;10371794;28;20348;-29
2023/03/27 03:52:49;;;;;;;2.50;1.40;;;;;;;17.59;58.42;96134.81;10344327;28;20029;-29
2023/03/27 03:57:50;;;;;;;3.97;1.48;;;;;;;17.69;57.36;96161.75;10363569;28;20041;-29
2023/03/27 04:02:56;;;;;;;3.55;1.33;;;;;;;17.69;57.76;96176.94;10355732;28;20096;-30
2023/03/27 04:08:01;;;;;;;5.32;1.65;;;;;;;17.68;58.00;96185.38;10363954;28;20109;-29
2023/03/27 04:13:34;;;;;;;3.10;1.30;;;;;;;17.73;57.27;96206.47;10340678;28;20504;-29
2023/03/27 04:18:49;;;;;;;2.30;1.67;;;;;;;17.73;57.65;96219.13;10345015;28;20033;-30
2023/03/27 04:23:52;;;;;;;;;;;;;;;17.75;57.56;96227.56;10353464;28;20119;-29
2023/03/27 04:29:02;;;;;;;3.20;1.55;;;;;;;17.76;57.09;96240.19;10362401;28;19917;-29
2023/03/27 04:34:32;;;;;;;2.80;1.73;;;;;;;17.79;58.20;96254.53;10361396;28;20049;-30
2023/03/27 04:39:48;;;;;;;5.43;1.90;;;;;;;17.78;58.33;96268.03;10346603;28;20125;-29
2023/03/27 04:44:51;;;;;;;6.38;2.08;;;;;;;17.79;57.60;96293.34;10373001;28;20034;-29
2023/03/27 04:49:52;;;;;;;4.88;2.03;;;;;;;17.75;57.65;96303.50;10343418;28;21940;-29
2023/03/27 04:55:00;;;;;;;4.07;2.40;;;;;;;17.79;56.81;96320.34;10350240;28;20034;-29
2023/03/27 05:00:13;;;;;;;4.63;1.80;;;;;;;17.78;57.21;96333.88;10345544;28;20030;-32
2023/03/27 05:05:19;;;;;;;7.03;2.10;;;;;;;17.80;57.53;96342.28;10364165;28;20486;-29
2023/03/27 05:10:21;;;;;;;8.55;2.38;;;;;;;17.77;58.01;96360.91;10343372;28;20132;-29
2023/03/27 05:15:22;;;;;;;5.13;2.38;;;;;;;17.77;57.86;96370.16;10362286;28;20060;-29
2023/03/27 05:20:23;;;;;;;5.97;2.55;;;;;;;17.76;58.12;96389.56;10348311;28;20041;-29
2023/03/27 05:25:25;;;;;;;7.55;2.03;;;;;;;17.75;58.53;96397.19;10350472;28;20489;-29
2023/03/27 05:30:27;;;;;;;6.53;2.30;;;;;;;17.75;57.21;96409.84;10357564;28;20057;-29
2023/03/27 05:35:57;;;;;;;8.80;1.95;;;;;;;17.69;57.73;96425.91;10355306;28;20536;-29
2023/03/27 05:40:58;;;;;;;6.60;1.88;;;;;;;17.75;58.45;96435.16;10382390;28;20033;-29
2023/03/27 05:46:00;;;;;;;6.75;1.48;;;;;;;17.76;58.27;96441.91;10361671;28;20516;-29
2023/03/27 05:51:01;;;;;;;4.95;1.55;;;;;;;17.73;57.54;96447.81;10372397;28;20121;-29
2023/03/27 05:56:01;;;;;;;8.13;1.90;;;;;;;17.69;57.55;96456.28;10362589;28;20033;-29
2023/03/27 06:01:09;;;;;;;9.40;1.92;;;;;;;17.66;58.27;96456.25;10332700;28;20034;-29
2023/03/27 06:06:11;;;;;;;4.95;2.03;;;;;;;17.63;58.36;96476.53;10360084;28;20038;-28
2023/03/27 06:11:14;;;;;;;3.72;1.65;;;;;;;17.62;58.21;96484.97;10362181;28;20446;-28
2023/03/27 06:16:19;;;;;;;5.60;1.80;;;;;;;17.59;58.05;96500.13;10365298;28;20111;-29
2023/03/27 06:21:23;;;;;;;2.08;1.30;;;;;;;17.58;58.35;96516.16;10368750;28;20038;-29
2023/03/27 06:26:30;;;;;;;2.67;1.60;;;;;;;17.59;58.28;96519.56;10358314;28;20842;-29
2023/03/27 06:31:35;;;;;;;7.70;1.88;;;;;;;17.58;58.20;96538.94;10359301;28;20022;-29
2023/03/27 06:36:40;;;;;;;5.55;2.13;;;;;;;17.57;58.07;96547.41;10348481;28;20034;-29
2023/03/27 06:41:42;;;;;;;2.28;1.52;;;;;;;17.58;57.98;96554.13;10354336;28;20053;-30
2023/03/27 06:46:52;;;;;;;6.28;2.33;;;;;;;17.66;57.95;96566.81;10347552;28;20046;-29
2023/03/27 06:52:01;;;;;;;3.55;1.67;;;;;;;17.68;58.49;96580.31;10346146;28;20048;-29
2023/03/27 06:57:03;;;;;;;2.13;1.10;;;;;;;17.60;57.92;96584.53;10348596;28;20034;-29
2023/03/27 07:02:16;;;;;;;4.25;1.40;;;;;;;17.53;57.69;96591.28;10351139;28;20470;-29
2023/03/27 07:07:46;;;;;;;3.70;1.42;;;;;;;17.51;57.09;96600.53;10370619;28;20049;-29
2023/03/27 07:12:48;;;;;;;1.67;1.20;;;;;;;17.53;56.79;96611.53;10357367;28;20040;-29
2023/03/27 07:18:05;;;;;;;2.75;1.55;;;;;;;17.50;56.07;96618.25;10368231;28;20083;-29
2023/03/27 07:23:05;;;;;;;2.55;1.13;;;;;;;17.48;56.15;96623.31;10341908;28;20041;-29
2023/03/27 07:28:25;;;;;;;7.75;1.45;;;;;;;17.46;56.35;96644.41;10348603;28;20030;-29
2023/03/27 07:33:26;;;;;;;1.35;1.17;;;;;;;17.46;54.67;96655.38;10342512;28;20037;-29
2023/03/27 07:38:27;;;;;;;2.60;1.58;;;;;;;17.44;54.30;96668.84;10365858;28;20514;-29
2023/03/27 07:43:44;;;;;;;2.40;1.50;;;;;;;17.42;54.56;96678.13;10388460;28;20026;-30
2023/03/27 07:48:44;;;;;;;2.50;1.37;;;;;;;17.42;54.04;96678.97;10364119;28;20060;-29
2023/03/27 07:53:54;;;;;;;3.15;1.25;;;;;;;17.50;56.40;96691.66;10367069;28;20061;-29
2023/03/27 07:58:58;;;;;;;2.17;1.65;;;;;;;17.55;56.61;96706.03;10357134;28;20105;-29
2023/03/27 08:03:59;;;;;;;3.03;1.75;;;;;;;17.43;55.94;96706.00;10372736;28;20049;-29
2023/03/27 08:09:04;;;;;;;2.42;1.50;;;;;;;17.43;54.01;96720.31;10368835;28;20058;-29
2023/03/27 08:14:05;;;;;;;4.05;1.75;;;;;;;17.41;53.82;96732.13;10364243;28;20038;-29
2023/03/27 08:19:05;;;;;;;3.20;1.27;;;;;;;17.40;53.48;96745.63;10389990;28;20034;-29
2023/03/27 08:24:10;;;;;;;2.40;1.60;;;;;;;17.40;52.65;96751.50;10347577;28;20030;-29
2023/03/27 08:29:30;;;;;;;2.50;1.20;;;;;;;17.37;52.67;96761.63;10395548;28;20045;-29
2023/03/27 08:34:31;;;;;;;2.58;1.38;;;;;;;17.38;52.41;96765.00;10360758;28;20662;-28
2023/03/27 08:39:31;;;;;;;2.80;1.35;;;;;;;17.37;52.33;96768.38;10356563;28;20037;-29
2023/03/27 08:44:37;;;;;;;3.13;1.65;;;;;;;17.38;52.22;96780.19;10371876;28;20087;-29
2023/03/27 08:49:52;;;;;;;2.42;1.52;;;;;;;17.35;51.85;96780.13;10342526;28;20033;-29
2023/03/27 08:55:06;;;;;;;4.38;1.70;;;;;;;17.36;51.63;96786.91;10378739;28;20064;-29
2023/03/27 09:00:21;;;;;;;3.15;1.48;;;;;;;17.38;54.35;96790.31;10355339;28;20033;-29
2023/03/27 09:05:39;;;;;;;1.60;1.20;;;;;;;17.45;55.52;96804.69;10366612;28;20399;-29
2023/03/27 09:10:53;;;;;;;2.40;1.40;;;;;;;17.42;54.71;96822.41;10369772;28;20045;-29
2023/03/27 09:16:17;;;;;;;3.13;1.38;;;;;;;17.37;51.58;96831.63;10369010;28;20116;-29
2023/03/27 09:21:33;;;;;;;3.92;1.63;;;;;;;17.36;51.19;96833.34;10355812;28;20037;-29
2023/03/27 09:26:40;;;;;;;2.63;1.20;;;;;;;17.31;50.71;96832.41;10371006;28;20444;-29
2023/03/27 09:31:49;;;;;;;2.67;1.35;;;;;;;17.33;50.78;96838.31;10368662;28;20049;-29
2023/03/27 09:36:49;;;;;;;2.88;1.55;;;;;;;17.32;50.39;96844.22;10355071;28;20493;-29
2023/03/27 09:41:56;;;;;;;2.72;1.30;;;;;;;17.31;48.93;96847.59;10356515;28;20038;-29
2023/03/27 09:47:03;;;;;;;2.60;1.50;;;;;;;17.34;51.00;96851.84;10336341;28;20033;-29
2023/03/27 09:52:06;;;;;;;1.73;1.10;;;;;;;17.30;48.68;96860.22;10351469;28;20511;-29
2023/03/27 09:57:12;;;;;;;3.30;1.15;;;;;;;17.30;49.07;96863.63;10388002;28;20045;-29
2023/03/27 10:02:31;;;;;;;2.92;1.33;;;;;;;17.27;49.17;96871.19;10347781;28;20405;-29
2023/03/27 10:07:32;;;;;;;2.85;1.20;;;;;;;17.30;48.63;96878.81;10361032;28;20030;-29
2023/03/27 10:13:15;;;;;;;2.38;1.20;;;;;;;17.38;54.13;96883.94;10367264;28;20029;-29
2023/03/27 10:18:26;;;;;;;1.50;1.10;;;;;;;17.40;53.74;96897.47;10356105;28;20037;-30
2023/03/27 10:23:41;;;;;;;1.88;0.95;;;;;;;17.34;50.72;96894.84;10375996;28;20033;-29
2023/03/27 10:28:50;;;;;;;2.35;1.00;;;;;;;17.36;48.09;96893.22;10359226;28;20022;-29
2023/03/27 10:34:03;;;;;;;4.70;1.30;;;;;;;17.36;51.13;96896.59;10361540;28;20029;-29
2023/03/27 10:39:42;;;;;;;1.58;0.80;;;;;;;17.38;50.77;96901.66;10375445;28;20056;-29
2023/03/27 10:44:55;;;;;;;3.05;1.10;;;;;;;17.38;50.23;96909.25;10346893;28;20032;-28
2023/03/27 10:50:39;;;;;;;7.50;1.77;;;;;;;17.43;52.80;96926.19;10350465;28;20050;-29
2023/03/27 10:56:07;;;;;;;3.08;1.48;;;;;;;17.46;50.51;96932.94;10339767;28;20116;-28
2023/03/27 11:01:17;;;;;;;1.90;1.23;;;;;;;17.46;51.00;96937.97;10342918;28;20150;-30
2023/03/27 11:06:30;;;;;;;3.80;1.52;;;;;;;17.45;50.32;96936.28;10345211;28;20041;-30
2023/03/27 11:11:38;;;;;;;2.60;1.52;;;;;;;17.49;50.89;96953.22;10371236;28;20536;-30
2023/03/27 11:16:50;;;;;;;5.80;1.40;;;;;;;17.51;53.34;96956.59;10362112;28;20029;-29
2023/03/27 11:22:36;;;;;;;3.53;1.00;;;;;;;17.51;53.69;96949.84;10353935;28;20498;-29
2023/03/27 11:27:48;;;;;;;2.78;1.35;;;;;;;17.53;49.45;96965.03;10376392;28;20037;-29
2023/03/27 11:33:10;;;;;;;5.13;1.80;;;;;;;17.54;51.36;96965.06;10359505;28;20516;-29
2023/03/27 11:38:19;;;;;;;4.75;1.75;;;;;;;17.49;49.13;96970.94;10376176;28;20088;-30
2023/03/27 11:43:21;;;;;;;6.10;1.30;;;;;;;17.52;49.29;96970.94;10356198;28;20034;-29
2023/03/27 11:48:32;;;;;;;6.00;1.60;;;;;;;17.45;47.58;96980.19;10362234;28;20022;-29
2023/03/27 11:53:48;;;;;;;3.80;1.30;;;;;;;17.45;47.30;96990.31;10386288;28;20034;-29
2023/03/27 11:59:10;;;;;;;3.72;1.10;;;;;;;17.47;47.56;96990.31;10385862;28;20352;-29
2023/03/27 12:04:36;;;;;;;10.20;1.77;;;;;;;17.51;47.53;96997.94;10372687;28;20091;-31
2023/03/27 12:10:20;;;;;;;4.65;1.30;;;;;;;17.55;47.84;97004.72;10369883;28;20398;-29
2023/03/27 12:15:40;;;;;;;3.77;1.33;;;;;;;17.55;48.13;97016.53;10353301;28;20044;-29
2023/03/27 12:20:51;;;;;;;6.82;1.60;;;;;;;17.36;45.40;97022.28;10400405;28;20044;-29
2023/03/27 12:26:01;;;;;;;7.50;1.60;;;;;;;17.38;46.02;97010.47;10377086;28;20029;-29
2023/03/27 12:31:44;;;;;;;7.07;1.80;;;;;;;17.39;50.28;97014.69;10387127;28;20034;-29
2023/03/27 12:36:47;;;;;;;3.42;0.98;;;;;;;17.43;46.68;97007.19;10359368;28;20056;-29
2023/03/27 12:41:50;;;;;;;5.47;1.10;;;;;;;17.36;46.59;97012.16;10364963;28;20025;-29
2023/03/27 12:47:21;;;;;;;5.82;1.23;;;;;;;17.46;46.06;97002.13;10348349;28;20061;-29
2023/03/27 12:52:25;;;;;;;6.68;1.73;;;;;;;17.48;46.46;97007.22;10334563;28;20525;-29
2023/03/27 12:57:42;;;;;;;5.40;1.10;;;;;;;17.48;46.38;97002.16;10355543;28;20497;-29
2023/03/27 13:03:04;;;;;;;3.45;1.42;;;;;;;17.50;46.15;97010.59;10362180;28;20589;-29
2023/03/27 13:08:33;;;;;;;4.57;1.08;;;;;;;17.49;45.54;97019.03;10350999;28;20030;-29
2023/03/27 13:13:56;;;;;;;2.25;1.23;;;;;;;17.48;45.49;97027.47;10362408;28;20026;-30
2023/03/27 13:19:17;;;;;;;3.05;1.27;;;;;;;17.49;46.10;97039.28;10331900;28;20129;-29
2023/03/27 13:24:57;;;;;;;7.63;1.60;;;;;;;17.37;45.85;97034.94;10347809;28;20493;-29
2023/03/27 13:30:03;;;;;;;3.97;1.35;;;;;;;17.45;46.07;97043.47;10362591;28;20108;-29
2023/03/27 13:35:21;;;;;;;4.60;2.10;;;;;;;17.46;46.27;97044.28;10359029;28;20025;-29
2023/03/27 13:40:29;;;;;;;5.35;1.85;;;;;;;17.45;52.03;97043.47;10366569;28;20030;-29
2023/03/27 13:46:06;;;;;;;8.95;1.90;;;;;;;17.47;51.94;97046.00;10377270;28;20056;-29
2023/03/27 13:51:20;;;;;;;6.00;1.50;;;;;;;17.05;44.29;97043.00;10371986;28;20653;-30
2023/03/27 13:56:44;;;;;;;7.90;2.13;;;;;;;16.94;44.25;97044.56;10349659;28;20114;-29
2023/03/27 14:02:17;;;;;;;4.75;1.30;;;;;;;17.07;46.17;97048.94;10370232;28;20045;-29
2023/03/27 14:07:59;;;;;;;5.88;1.50;;;;;;;16.82;42.34;97046.97;10377492;28;20041;-29
2023/03/27 14:13:22;;;;;;;5.32;1.20;;;;;;;16.83;43.50;97043.63;10380090;28;20045;-29
2023/03/27 14:19:14;;;;;;;3.35;1.38;;;;;;;17.08;43.60;97048.94;10371901;28;20033;-29
2023/03/27 14:24:37;;;;;;;2.10;0.90;;;;;;;17.18;43.97;97049.91;10383611;28;20124;-29
2023/03/27 14:30:06;;;;;;;1.92;0.80;;;;;;;17.14;43.28;97041.44;10378204;28;20079;-29
2023/03/27 14:35:22;;;;;;;2.42;1.05;;;;;;;17.21;44.16;97047.38;10369232;28;20026;-29
2023/03/27 14:40:34;;;;;;;2.95;0.70;;;;;;;17.21;44.78;97052.44;10378273;28;20045;-30
2023/03/27 14:45:39;;;;;;;;;;;;;;;17.24;44.61;97052.50;10382768;28;20039;-29
2023/03/27 14:50:41;;;;;;;3.33;1.27;;;;;;;17.30;51.26;97052.53;10382262;28;19983;-29
2023/03/27 14:55:44;;;;;;;9.57;1.63;;;;;;;17.34;51.36;97046.69;10387685;28;20026;-29
2023/03/27 15:01:20;;;;;;;4.07;0.85;;;;;;;17.29;45.62;97045.78;10300935;28;20049;-28
2023/03/27 15:06:28;;;;;;;0.73;0.57;;;;;;;17.25;45.22;97049.13;10383228;28;20021;-29
2023/03/27 15:11:37;;;;;;;3.78;0.65;;;;;;;17.26;44.99;97061.78;10381195;28;20649;-29
2023/03/27 15:16:54;;;;;;;5.97;1.38;;;;;;;17.26;45.07;97056.72;10380658;28;20052;-30
2023/03/27 15:22:04;;;;;;;3.58;0.85;;;;;;;17.16;45.45;97054.09;10378795;28;20521;-29
2023/03/27 15:27:15;;;;;;;3.33;0.77;;;;;;;17.27;44.98;97045.78;10399004;28;20061;-29
2023/03/27 15:32:20;;;;;;;2.65;1.00;;;;;;;17.34;45.09;97054.28;10400138;28;20060;-29
2023/03/27 15:37:24;;;;;;;1.88;0.65;;;;;;;17.35;45.17;97051.78;10400506;28;20111;-29
2023/03/27 15:42:30;;;;;;;5.53;0.85;;;;;;;17.35;45.46;97051.78;10401393;28;20033;-29
2023/03/27 15:47:32;;;;;;;3.30;0.80;;;;;;;17.34;45.65;97064.41;10400685;28;20123;-30
2023/03/27 15:52:32;;;;;;;2.70;0.98;;;;;;;17.34;47.70;97082.13;10394725;28;20405;-29
2023/03/27 15:57:33;;;;;;;2.72;0.68;;;;;;;17.11;42.41;97075.97;10400748;28;20072;-30
2023/03/27 16:02:34;;;;;;;3.15;1.33;;;;;;;17.32;47.17;97089.69;10397654;28;20033;-29
2023/03/27 16:07:46;;;;;;;3.15;0.82;;;;;;;17.37;43.88;97087.25;10351835;28;20030;-29
2023/03/27 16:12:46;;;;;;;1.48;0.82;;;;;;;17.35;43.01;97086.34;10375156;28;20456;-29
2023/03/27 16:17:49;;;;;;;6.07;1.00;;;;;;;17.17;43.49;97084.47;10373056;28;20087;-29
2023/03/27 16:22:50;;;;;;;1.65;0.90;;;;;;;17.22;43.34;97092.09;10376094;28;20172;-29
2023/03/27 16:27:57;;;;;;;2.92;0.82;;;;;;;17.21;42.33;97085.34;10396326;28;20052;-28
2023/03/27 16:32:58;;;;;;;1.88;0.70;;;;;;;17.15;42.52;97095.41;10387231;28;20516;-29
2023/03/27 16:37:59;;;;;;;2.08;1.20;;;;;;;17.13;42.54;97119.81;10383485;28;20490;-29
2023/03/27 16:43:00;;;;;;;3.85;2.08;;;;;;;17.22;43.35;97109.81;10378184;28;20029;-29
2023/03/27 16:48:00;;;;;;;0.70;0.67;;;;;;;17.24;44.30;97123.34;10392215;28;20066;-29
2023/03/27 16:53:00;;;;;;;1.77;0.93;;;;;;;17.24;43.84;97146.97;10370979;28;20371;-29
2023/03/27 16:58:01;;;;;;;2.45;1.05;;;;;;;17.24;43.54;97161.31;10374506;28;20105;-29
2023/03/27 17:03:02;;;;;;;4.00;1.00;;;;;;;17.27;43.90;97189.16;10392758;28;20033;-29
2023/03/27 17:08:03;;;;;;;3.00;1.10;;;;;;;17.31;47.83;97190.91;10373268;28;20049;-29
2023/03/27 17:13:03;;;;;;;4.45;1.30;;;;;;;17.35;49.90;97203.63;10362925;28;20033;-29
2023/03/27 17:18:04;;;;;;;2.90;0.97;;;;;;;17.39;49.42;97210.44;10357861;28;20041;-29
2023/03/27 17:23:05;;;;;;;2.22;1.10;;;;;;;17.31;46.72;97199.34;10365432;28;20304;-29
2023/03/27 17:28:05;;;;;;;3.47;0.90;;;;;;;17.37;45.61;97217.19;10345363;28;20044;-29
2023/03/27 17:33:06;;;;;;;2.53;0.95;;;;;;;17.37;45.82;97222.25;10377404;28;20037;-28
2023/03/27 17:38:07;;;;;;;2.13;1.03;;;;;;;17.31;45.38;97233.94;10348769;28;20061;-29
2023/03/27 17:43:08;;;;;;;2.58;0.85;;;;;;;17.31;44.71;97242.38;10357879;28;20288;-29
2023/03/27 17:48:12;;;;;;;1.80;0.85;;;;;;;17.35;45.50;97244.13;10389014;28;20405;-29
2023/03/27 17:53:15;;;;;;;2.75;0.80;;;;;;;17.33;44.82;97250.00;10371819;28;20049;-29
2023/03/27 17:58:20;;;;;;;2.38;0.80;;;;;;;17.39;45.20;97265.25;10329701;28;20030;-29
2023/03/27 18:03:21;;;;;;;1.85;0.77;;;;;;;17.39;46.76;97267.78;10369656;28;20501;-29
2023/03/27 18:08:22;;;;;;;3.92;0.95;;;;;;;17.38;46.66;97279.63;10351679;28;20502;-29
2023/03/27 18:13:23;;;;;;;2.23;0.90;;;;;;;17.31;47.12;97277.78;10353388;28;20041;-29
2023/03/27 18:18:24;;;;;;;1.60;0.90;;;;;;;17.37;46.52;97277.91;10337837;28;20042;-29
2023/03/27 18:23:24;;;;;;;5.00;1.10;;;;;;;17.38;49.84;97282.16;10362609;28;20037;-29
2023/03/27 18:28:24;;;;;;;3.95;1.15;;;;;;;17.38;49.94;97278.75;10376070;28;20049;-29
2023/03/27 18:33:25;;;;;;;3.03;1.03;;;;;;;17.37;48.66;97282.97;10380185;28;20097;-29
2023/03/27 18:38:26;;;;;;;0.60;0.60;;;;;;;17.33;48.41;97295.53;10377906;28;20288;-29
2023/03/27 18:43:27;;;;;;;2.10;0.90;;;;;;;17.33;48.29;97296.38;10354340;28;20565;-29
2023/03/27 18:48:29;;;;;;;1.30;0.80;;;;;;;17.32;47.81;97303.97;10382097;28;20037;-29
2023/03/27 18:53:30;;;;;;;1.48;0.75;;;;;;;17.31;48.46;97313.22;10374786;28;20283;-29
2023/03/27 18:58:31;;;;;;;1.80;0.93;;;;;;;17.30;47.90;97316.59;10380992;28;20033;-29
2023/03/27 19:03:35;;;;;;;2.90;1.02;;;;;;;17.30;47.84;97314.06;10373160;28;20033;-29
2023/03/27 19:08:36;;;;;;;1.63;0.95;;;;;;;17.28;47.82;97312.31;10364743;28;20026;-29
2023/03/27 19:13:36;;;;;;;2.83;0.90;;;;;;;17.22;47.56;97307.16;10366855;28;20072;-29
2023/03/27 19:18:56;;;;;;;1.20;0.70;;;;;;;17.30;47.85;97313.19;10361755;28;20118;-29
2023/03/27 19:24:15;;;;;;;2.95;1.30;;;;;;;17.29;47.37;97314.03;10382965;28;20045;-30
2023/03/27 19:29:17;;;;;;;3.95;1.48;;;;;;;17.34;47.24;97317.47;10358137;28;20029;-29
2023/03/27 19:34:18;;;;;;;1.47;1.00;;;;;;;17.35;48.78;97304.88;10382286;28;20037;-29
2023/03/27 19:39:18;;;;;;;0.65;0.65;;;;;;;17.36;49.17;97316.72;10385733;28;20295;-29
2023/03/27 19:44:19;;;;;;;2.90;1.07;;;;;;;17.36;47.16;97315.84;10360832;28;20042;-29
2023/03/27 19:49:20;;;;;;;1.27;1.00;;;;;;;17.33;47.41;97320.84;10368901;28;20060;-29
2023/03/27 19:54:24;;;;;;;1.48;1.00;;;;;;;17.33;47.60;97336.03;10359315;28;20607;-29
2023/03/27 19:59:24;;;;;;;2.43;1.00;;;;;;;17.29;47.82;97335.13;10383341;28;20044;-29
2023/03/27 20:04:25;;;;;;;1.80;0.90;;;;;;;17.29;47.53;97341.88;10388477;28;20057;-29
2023/03/27 20:09:25;;;;;;;1.23;1.03;;;;;;;17.26;45.94;97339.31;10392630;28;20034;-29
2023/03/27 20:14:26;;;;;;;4.07;1.40;;;;;;;17.28;47.25;97348.63;10374949;28;20288;-29
2023/03/27 20:19:29;;;;;;;1.87;0.93;;;;;;;17.31;46.65;97342.75;10373605;28;20037;-29
2023/03/27 20:24:31;;;;;;;1.50;1.00;;;;;;;17.28;47.30;97343.56;10366674;28;20021;-29
2023/03/27 20:29:33;;;;;;;2.83;1.15;;;;;;;17.30;47.91;97351.16;10365283;28;20026;-29
2023/03/27 20:34:34;;;;;;;1.67;1.00;;;;;;;17.29;48.14;97354.53;10381249;28;20033;-29
2023/03/27 20:39:48;;;;;;;2.90;1.10;;;;;;;17.27;48.01;97346.94;10339533;28;20033;-29
2023/03/27 20:44:53;;;;;;;2.97;1.15;;;;;;;17.33;51.06;97352.06;10344243;28;20037;-29
2023/03/27 20:49:57;;;;;;;1.13;0.70;;;;;;;17.34;50.38;97356.28;10392827;28;20065;-29
2023/03/27 20:54:58;;;;;;;2.22;1.20;;;;;;;17.31;48.94;97368.06;10370744;28;20038;-29
2023/03/27 20:59:58;;;;;;;1.93;1.20;;;;;;;17.28;48.69;97378.13;10373496;28;20034;-29
2023/03/27 21:05:01;;;;;;;1.70;1.00;;;;;;;17.23;48.89;97375.53;10371217;28;20650;-30
2023/03/27 21:10:01;;;;;;;1.95;1.00;;;;;;;17.26;48.48;97379.78;10387445;28;20033;-29
2023/03/27 21:15:02;;;;;;;0.70;0.70;;;;;;;17.25;48.63;97378.09;10352445;28;20045;-29
2023/03/27 21:20:04;;;;;;;2.58;1.20;;;;;;;17.27;48.58;97376.44;10375354;28;20300;-29
2023/03/27 21:25:06;;;;;;;1.58;1.33;;;;;;;17.25;48.75;97380.63;10350599;28;20525;-29
2023/03/27 21:30:08;;;;;;;1.42;0.95;;;;;;;17.22;47.63;97386.47;10385826;28;20041;-29
2023/03/27 21:35:09;;;;;;;1.40;1.08;;;;;;;17.25;48.99;97378.09;10373729;28;20684;-29
2023/03/27 21:40:10;;;;;;;2.53;1.45;;;;;;;17.26;48.70;97389.91;10379841;28;20025;-29
2023/03/27 21:45:10;;;;;;;2.40;1.20;;;;;;;17.23;48.85;97380.59;10373653;28;20045;-29
2023/03/27 21:50:11;;;;;;;1.37;1.27;;;;;;;17.24;48.90;97391.56;10390898;28;20413;-29
2023/03/27 21:55:11;;;;;;;1.13;1.00;;;;;;;17.28;50.27;97389.13;10384374;28;20334;-29
2023/03/27 22:00:13;;;;;;;1.48;1.15;;;;;;;17.29;50.11;97380.69;10374888;28;20490;-29
2023/03/27 22:05:13;;;;;;;1.52;1.00;;;;;;;17.28;48.73;97396.72;10378446;28;20076;-29
2023/03/27 22:10:14;;;;;;;2.17;1.45;;;;;;;17.24;48.69;97402.53;10367946;28;20054;-29
2023/03/27 22:15:15;;;;;;;1.35;1.05;;;;;;;17.20;48.52;97402.47;10361676;28;20143;-29
2023/03/27 22:20:15;;;;;;;2.10;0.90;;;;;;;17.19;48.85;97418.47;10374240;28;20038;-29
2023/03/27 22:25:16;;;;;;;0.85;0.80;;;;;;;17.21;48.40;97421.88;10368633;28;20036;-28
2023/03/27 22:30:16;;;;;;;1.10;0.85;;;;;;;17.19;48.74;97429.47;10378892;28;20561;-28
2023/03/27 22:35:17;;;;;;;1.25;0.90;;;;;;;17.19;48.95;97432.00;10370115;28;20121;-29
2023/03/27 22:40:18;;;;;;;2.25;0.80;;;;;;;17.19;48.37;97432.00;10376594;28;20397;-29
2023/03/27 22:45:18;;;;;;;0.88;0.70;;;;;;;17.17;48.47;97441.22;10356232;28;20038;-29
2023/03/27 22:50:18;;;;;;;1.23;0.90;;;;;;;17.18;48.36;97450.53;10374157;28;20063;-29
2023/03/27 22:55:19;;;;;;;2.50;1.00;;;;;;;17.18;48.48;97457.25;10384411;28;20035;-29
2023/03/27 23:00:19;;;;;;;1.00;0.90;;;;;;;17.18;48.57;97458.13;10364239;28;20059;-29
2023/03/27 23:05:20;;;;;;;1.50;0.98;;;;;;;17.23;49.45;97458.19;10367669;28;20052;-28
2023/03/27 23:10:20;;;;;;;1.00;0.80;;;;;;;17.27;49.45;97467.53;10388456;28;20033;-29
2023/03/27 23:15:21;;;;;;;1.17;0.90;;;;;;;17.25;48.54;97470.03;10377386;28;20052;-29
2023/03/27 23:20:21;;;;;;;1.73;1.10;;;;;;;17.18;48.76;97473.31;10373870;28;20025;-30
2023/03/27 23:25:22;;;;;;;1.20;0.80;;;;;;;17.18;48.92;97477.50;10389136;28;20041;-29
2023/03/27 23:30:23;;;;;;;2.05;0.90;;;;;;;17.17;48.32;97473.28;10384680;28;20520;-29
2023/03/27 23:35:23;;;;;;;2.77;2.10;;;;;;;17.15;48.59;97477.47;10384520;28;20393;-30
2023/03/27 23:40:23;;;;;;;1.20;0.90;;;;;;;17.11;48.67;97488.34;10390027;28;20560;-29
2023/03/27 23:45:24;;;;;;;2.03;1.00;;;;;;;17.13;48.26;97489.22;10354584;28;20042;-30
2023/03/27 23:50:25;;;;;;;1.00;0.80;;;;;;;17.16;48.09;97500.25;10386411;28;20507;-30
2023/03/27 23:55:25;;;;;;;1.42;1.00;;;;;;;17.14;47.71;97496.00;10381448;28;20025;-30
